Carter, South Dakota
Current Conditions -  °F | °C
As of 9:53 AM on Friday 28 Nov 2014 (Local Time) from KICR Reporting Station
Clear Clear  
Wind Chill: 47°   Ceiling: Unl
Heat Index: 49°   Visibility: 10mi
Dew Point: 29°   Wind: 6mph
Humidity: 46%   Direction: 210°SSW
Pressure: 29.68"   Gusts: NA
Location:  43.39°N, 100.2°W
Report Text: KICR 281553Z AUTO 21005KT 10SM CLR 09/M02 A2968 RMK AO2 SLP059 T00941017
Loading
Personal Weather Stations






























Interactive Weather Map New forecast layout! Learn more

10-Day Weather Forecast

Advertisements
Track Severe Weather on mobile